createdAt,value
2023-05-13T00:00:49.849Z,7.95
2023-05-13T00:03:17.316Z,11.63
2023-05-13T00:05:45.869Z,13.27
2023-05-13T00:08:13.212Z,10.55
2023-05-13T00:10:40.356Z,16.60
2023-05-13T00:13:08.486Z,7.68
2023-05-13T00:15:35.601Z,9.70
2023-05-13T00:18:02.932Z,10.70
2023-05-13T00:20:30.239Z,10.15
2023-05-13T00:22:57.302Z,11.68
2023-05-13T00:25:24.492Z,11.93
2023-05-13T00:27:51.578Z,11.40
2023-05-13T00:30:19.224Z,10.63
2023-05-13T00:32:46.633Z,13.77
2023-05-13T00:35:14.036Z,9.88
2023-05-13T00:37:41.151Z,9.63
2023-05-13T00:40:23.907Z,10.95
2023-05-13T00:42:51.986Z,12.35
2023-05-13T00:45:20.645Z,11.65
2023-05-13T00:47:49.736Z,9.68
2023-05-13T00:50:16.897Z,10.30
2023-05-13T00:52:44.652Z,8.73
2023-05-13T00:55:12.495Z,9.60
2023-05-13T00:57:42.415Z,7.50
2023-05-13T01:00:10.896Z,11.82
2023-05-13T01:02:50.350Z,12.05
2023-05-13T01:05:35.717Z,8.88
2023-05-13T01:08:28.688Z,9.43
2023-05-13T01:11:05.458Z,10.77
2023-05-13T01:13:40.000Z,7.88
2023-05-13T01:16:25.950Z,12.25
2023-05-13T01:18:58.780Z,9.85
2023-05-13T01:21:27.354Z,7.68
2023-05-13T01:23:56.213Z,11.30
2023-05-13T01:26:25.446Z,12.18
2023-05-13T01:28:53.512Z,14.50
2023-05-13T01:31:23.001Z,11.13
2023-05-13T01:33:52.170Z,13.68
2023-05-13T01:36:19.767Z,9.70
2023-05-13T01:38:48.929Z,10.95
2023-05-13T01:41:16.421Z,12.15
2023-05-13T01:43:43.793Z,10.88
2023-05-13T01:46:14.210Z,14.00
2023-05-13T01:48:41.827Z,12.77
2023-05-13T01:51:09.815Z,16.65
2023-05-13T01:53:36.909Z,12.65
2023-05-13T01:56:04.300Z,9.20
2023-05-13T01:58:31.845Z,9.82
2023-05-13T02:01:00.780Z,8.68
2023-05-13T02:03:28.016Z,9.02
2023-05-13T02:05:55.642Z,10.75
2023-05-13T02:08:24.032Z,9.90
2023-05-13T02:10:58.122Z,9.27
2023-05-13T02:13:26.194Z,12.88
2023-05-13T02:15:54.730Z,7.80
2023-05-13T02:18:22.491Z,13.40
2023-05-13T02:20:49.746Z,18.55
2023-05-13T02:23:17.828Z,9.02
2023-05-13T02:25:45.235Z,12.80
2023-05-13T02:28:12.417Z,14.52
2023-05-13T02:30:39.557Z,12.55
2023-05-13T02:33:07.665Z,10.93
2023-05-13T02:35:34.925Z,11.88
2023-05-13T02:38:04.496Z,12.48
2023-05-13T02:40:34.055Z,11.50
2023-05-13T02:43:01.607Z,12.73
2023-05-13T02:45:41.980Z,13.25
2023-05-13T02:48:11.269Z,9.25
2023-05-13T02:50:40.555Z,10.05
2023-05-13T02:53:09.274Z,9.20
2023-05-13T02:55:40.559Z,9.05
2023-05-13T02:58:09.647Z,10.73
2023-05-13T03:00:36.870Z,10.90
2023-05-13T03:03:04.195Z,10.95
2023-05-13T03:05:31.425Z,12.05
2023-05-13T03:07:58.557Z,15.45
2023-05-13T03:10:26.455Z,9.05
2023-05-13T03:12:53.986Z,11.00
2023-05-13T03:15:21.580Z,8.90
2023-05-13T03:17:48.905Z,12.18
2023-05-13T03:20:16.682Z,9.82
2023-05-13T03:22:43.977Z,11.68
2023-05-13T03:25:12.398Z,12.38
2023-05-13T03:27:48.240Z,13.60
2023-05-13T03:30:17.745Z,12.20
2023-05-13T03:32:51.586Z,10.13
2023-05-13T03:35:19.423Z,14.43
2023-05-13T03:37:47.552Z,13.65
2023-05-13T03:40:16.283Z,9.63
2023-05-13T03:42:43.819Z,12.60
2023-05-13T03:45:11.830Z,12.18
2023-05-13T03:47:41.481Z,8.52
2023-05-13T03:50:14.559Z,13.02
2023-05-13T03:52:46.853Z,12.02
2023-05-13T03:55:15.462Z,15.00
2023-05-13T03:57:49.719Z,11.35
2023-05-13T04:00:24.488Z,9.98
2023-05-13T04:02:51.835Z,9.88
2023-05-13T04:05:19.251Z,11.10
2023-05-13T04:07:46.901Z,12.27
2023-05-13T04:10:15.553Z,11.80
2023-05-13T04:12:43.242Z,9.10
2023-05-13T04:15:10.792Z,9.45
2023-05-13T04:17:37.945Z,10.65
2023-05-13T04:20:05.705Z,11.90
2023-05-13T04:22:32.805Z,10.25
2023-05-13T04:24:59.893Z,11.13
2023-05-13T04:27:27.324Z,12.93
2023-05-13T04:30:04.629Z,12.40
2023-05-13T04:32:34.027Z,13.10
2023-05-13T04:35:01.499Z,10.85
2023-05-13T04:37:30.975Z,12.30
2023-05-13T04:40:04.574Z,10.38
2023-05-13T04:42:31.759Z,10.68
2023-05-13T04:44:59.377Z,12.98
2023-05-13T04:47:26.638Z,18.33
2023-05-13T04:49:53.884Z,12.13
2023-05-13T04:52:21.283Z,7.97
2023-05-13T04:54:48.630Z,12.13
2023-05-13T04:57:18.337Z,11.10
2023-05-13T04:59:46.724Z,13.00
2023-05-13T05:02:15.843Z,11.23
2023-05-13T05:04:42.998Z,13.70
2023-05-13T05:07:13.847Z,8.98
2023-05-13T05:09:41.028Z,10.82
2023-05-13T05:12:08.578Z,11.93
2023-05-13T05:14:39.626Z,15.65
2023-05-13T05:17:07.507Z,9.18
2023-05-13T05:19:35.048Z,11.35
2023-05-13T05:22:03.230Z,10.63
2023-05-13T05:24:30.446Z,14.45
2023-05-13T05:26:57.680Z,15.80
2023-05-13T05:29:24.812Z,12.00
2023-05-13T05:31:52.235Z,12.30
2023-05-13T05:34:20.276Z,8.65
2023-05-13T05:36:47.510Z,11.25
2023-05-13T05:39:16.212Z,11.68
2023-05-13T05:41:43.549Z,10.85
2023-05-13T05:44:13.566Z,12.73
2023-05-13T05:46:41.434Z,8.30
2023-05-13T05:49:08.615Z,13.60
2023-05-13T05:51:37.083Z,11.82
2023-05-13T05:54:05.483Z,9.43
2023-05-13T05:56:32.916Z,9.05
2023-05-13T05:59:00.481Z,10.60
2023-05-13T06:01:33.329Z,11.00
2023-05-13T06:04:00.669Z,12.93
2023-05-13T06:06:27.993Z,9.77
2023-05-13T06:08:55.169Z,11.35
2023-05-13T06:11:22.316Z,14.00
2023-05-13T06:13:49.830Z,11.40
2023-05-13T06:16:17.370Z,13.50
2023-05-13T06:18:44.608Z,17.55
2023-05-13T06:21:11.853Z,11.77
2023-05-13T06:23:40.077Z,11.43
2023-05-13T06:26:07.296Z,11.60
2023-05-13T06:28:35.903Z,14.68
2023-05-13T06:31:03.121Z,15.40
2023-05-13T06:33:30.366Z,13.60
2023-05-13T06:35:57.609Z,10.20
2023-05-13T06:38:25.943Z,11.18
2023-05-13T06:40:56.964Z,10.90
2023-05-13T06:43:31.717Z,14.80
2023-05-13T06:46:01.048Z,9.50
2023-05-13T06:48:28.741Z,12.48
2023-05-13T06:50:55.875Z,8.55
2023-05-13T06:53:23.054Z,12.98
2023-05-13T06:55:50.442Z,14.77
2023-05-13T06:58:17.842Z,11.63
2023-05-13T07:00:46.872Z,10.52
2023-05-13T07:03:14.172Z,11.38
2023-05-13T07:05:41.369Z,11.05
2023-05-13T07:08:08.860Z,10.00
2023-05-13T07:10:37.154Z,10.85
2023-05-13T07:13:04.641Z,14.00
2023-05-13T07:15:31.779Z,13.40
2023-05-13T07:17:58.941Z,13.27
2023-05-13T07:20:26.992Z,13.65
2023-05-13T07:22:54.288Z,12.15
2023-05-13T07:25:21.439Z,11.80
2023-05-13T07:27:48.680Z,15.25
2023-05-13T07:30:16.002Z,17.52
2023-05-13T07:32:43.312Z,12.63
2023-05-13T07:35:10.832Z,13.30
2023-05-13T07:37:38.036Z,9.60
2023-05-13T07:40:09.010Z,11.45
2023-05-13T07:42:37.008Z,10.77
2023-05-13T07:45:04.780Z,10.25
2023-05-13T07:47:32.104Z,9.93
2023-05-13T07:49:59.436Z,16.95
2023-05-13T07:52:27.340Z,14.38
2023-05-13T07:54:55.076Z,14.40
2023-05-13T07:57:22.247Z,15.07
2023-05-13T07:59:49.343Z,10.88
2023-05-13T08:02:16.534Z,16.08
2023-05-13T08:04:43.676Z,11.07
2023-05-13T08:07:11.637Z,11.18
2023-05-13T08:09:38.910Z,12.30
2023-05-13T08:12:06.559Z,12.38
2023-05-13T08:14:33.658Z,11.13
2023-05-13T08:17:01.155Z,13.35
2023-05-13T08:19:28.366Z,12.07
2023-05-13T08:21:55.506Z,12.70
2023-05-13T08:24:22.679Z,16.45
2023-05-13T08:26:49.768Z,11.57
2023-05-13T08:29:16.910Z,12.40
2023-05-13T08:31:44.063Z,13.98
2023-05-13T08:34:11.273Z,7.80
2023-05-13T08:36:38.353Z,9.88
2023-05-13T08:39:05.468Z,14.60
2023-05-13T08:41:34.014Z,10.18
2023-05-13T08:44:06.095Z,16.95
2023-05-13T08:46:36.836Z,13.05
2023-05-13T08:49:04.956Z,11.07
2023-05-13T08:51:32.268Z,13.85
2023-05-13T08:54:01.019Z,25.67
2023-05-13T08:56:29.934Z,17.00
2023-05-13T08:58:57.142Z,8.60
2023-05-13T09:01:26.943Z,7.55
2023-05-13T09:04:04.563Z,7.35
2023-05-13T09:06:31.678Z,6.68
2023-05-13T09:08:58.980Z,5.90
2023-05-13T09:11:26.945Z,9.13
2023-05-13T09:13:58.777Z,7.75
2023-05-13T09:16:28.310Z,5.60
2023-05-13T09:19:04.963Z,8.45
2023-05-13T09:21:35.549Z,5.38
2023-05-13T09:24:19.096Z,6.50
2023-05-13T09:26:46.624Z,9.20
2023-05-13T09:29:21.517Z,6.65
2023-05-13T09:31:54.116Z,7.65
2023-05-13T09:34:36.347Z,6.97
2023-05-13T09:37:04.967Z,6.35
2023-05-13T09:39:43.569Z,13.20
2023-05-13T09:42:17.885Z,8.02
2023-05-13T09:44:46.132Z,8.18
2023-05-13T09:47:14.915Z,9.25
2023-05-13T09:49:43.815Z,9.25
2023-05-13T09:52:12.035Z,10.50
2023-05-13T09:54:39.612Z,5.80
2023-05-13T09:57:07.185Z,7.55
2023-05-13T09:59:35.112Z,6.25
2023-05-13T10:02:05.566Z,7.13
2023-05-13T10:04:33.199Z,10.43
2023-05-13T10:07:04.206Z,7.70
2023-05-13T10:09:38.820Z,6.70
2023-05-13T10:12:09.026Z,8.63
2023-05-13T10:14:38.929Z,12.20
2023-05-13T10:17:08.085Z,7.45
2023-05-13T10:19:36.821Z,9.75
2023-05-13T10:22:05.090Z,13.43
2023-05-13T10:24:33.764Z,5.32
2023-05-13T10:27:02.641Z,11.52
2023-05-13T10:29:30.638Z,9.55
2023-05-13T10:32:00.299Z,7.70
2023-05-13T10:34:29.349Z,8.38
2023-05-13T10:37:21.913Z,6.47
2023-05-13T10:40:05.522Z,7.25
2023-05-13T10:42:42.865Z,6.43
2023-05-13T10:45:10.997Z,10.57
2023-05-13T10:47:39.254Z,7.05
2023-05-13T10:50:22.203Z,5.13
2023-05-13T10:52:49.919Z,6.55
2023-05-13T10:55:20.165Z,5.05
2023-05-13T10:58:10.033Z,7.20
2023-05-13T11:00:42.100Z,9.40
2023-05-13T11:03:16.009Z,11.23
2023-05-13T11:05:59.816Z,17.95
2023-05-13T11:08:38.037Z,6.35
2023-05-13T11:11:22.790Z,6.15
2023-05-13T11:13:52.285Z,8.57
2023-05-13T11:16:21.969Z,7.43
2023-05-13T11:18:51.729Z,9.93
2023-05-13T11:21:33.371Z,4.93
2023-05-13T11:24:05.817Z,4.93
2023-05-13T11:26:49.332Z,7.65
2023-05-13T11:29:30.712Z,11.77
2023-05-13T11:32:00.509Z,5.70
2023-05-13T11:34:29.306Z,9.23
2023-05-13T11:37:05.806Z,8.07
2023-05-13T11:39:33.716Z,7.53
2023-05-13T11:42:07.135Z,8.45
2023-05-13T11:44:36.291Z,8.35
2023-05-13T11:47:06.791Z,6.38
2023-05-13T11:49:44.823Z,11.05
2023-05-13T11:52:17.897Z,7.35
2023-05-13T11:54:51.214Z,9.40
2023-05-13T11:57:19.414Z,10.20
2023-05-13T11:59:55.880Z,4.68
2023-05-13T12:02:26.009Z,8.30
2023-05-13T12:04:53.668Z,8.10
2023-05-13T12:07:25.416Z,6.63
2023-05-13T12:09:57.762Z,5.45
2023-05-13T12:12:29.812Z,5.13
2023-05-13T12:15:03.162Z,6.38
2023-05-13T12:17:31.969Z,7.23
2023-05-13T12:20:25.710Z,9.60
2023-05-13T12:22:59.419Z,5.15
2023-05-13T12:25:40.410Z,8.32
2023-05-13T12:28:26.325Z,4.18
2023-05-13T12:30:58.105Z,8.43
2023-05-13T12:33:30.781Z,7.07
2023-05-13T12:36:20.393Z,6.20
2023-05-13T12:39:01.113Z,9.05
2023-05-13T12:41:33.326Z,4.40
2023-05-13T12:44:11.121Z,7.47
2023-05-13T12:46:39.991Z,8.63
2023-05-13T12:49:09.756Z,8.85
2023-05-13T12:51:37.207Z,5.03
2023-05-13T12:54:04.761Z,6.13
2023-05-13T12:56:32.307Z,9.77
2023-05-13T12:58:59.911Z,4.13
2023-05-13T13:01:28.532Z,11.00
2023-05-13T13:03:56.033Z,5.00
2023-05-13T13:06:23.810Z,6.18
2023-05-13T13:08:51.701Z,8.02
2023-05-13T13:11:20.820Z,6.53
2023-05-13T13:13:51.053Z,7.78
2023-05-13T13:16:18.746Z,7.85
2023-05-13T13:18:47.734Z,5.85
2023-05-13T13:21:18.370Z,8.88
2023-05-13T13:23:50.329Z,5.97
2023-05-13T13:26:21.754Z,12.40
2023-05-13T13:28:54.420Z,8.52
2023-05-13T13:31:24.821Z,7.20
2023-05-13T13:33:54.738Z,7.75
2023-05-13T13:36:33.822Z,7.53
2023-05-13T13:39:12.116Z,8.05
2023-05-13T14:03:56.604Z,8.38
2023-05-13T14:07:15.488Z,6.85
2023-05-13T14:10:11.003Z,6.57
2023-05-13T14:12:52.123Z,6.10
2023-05-13T14:15:20.198Z,5.25
2023-05-13T14:17:53.869Z,6.77
2023-05-13T14:20:26.613Z,11.70
2023-05-13T14:23:03.313Z,11.95
2023-05-13T14:25:47.912Z,7.65
2023-05-13T14:28:18.423Z,12.75
2023-05-13T14:30:49.306Z,6.93
2023-05-13T14:33:16.705Z,8.68
2023-05-13T14:35:50.914Z,9.23
2023-05-13T14:38:29.463Z,8.98
2023-05-13T14:40:57.810Z,9.85
2023-05-13T14:43:25.924Z,11.00
2023-05-13T14:45:53.720Z,6.88
2023-05-13T14:48:23.382Z,10.27
2023-05-13T14:50:54.010Z,7.82
2023-05-13T14:53:23.338Z,14.73
2023-05-13T14:55:55.169Z,7.90
2023-05-13T14:58:27.716Z,15.93
2023-05-13T15:01:08.665Z,10.95
2023-05-13T15:04:00.682Z,4.10
2023-05-13T15:09:22.906Z,5.65
2023-05-13T15:12:01.722Z,5.72
2023-05-13T15:14:31.379Z,6.88
2023-05-13T15:17:01.398Z,6.55
2023-05-13T15:19:31.532Z,5.50
2023-05-13T15:22:02.345Z,8.15
2023-05-13T15:24:31.663Z,3.53
2023-05-13T15:27:01.096Z,4.13
2023-05-13T15:29:32.568Z,7.53
2023-05-13T15:32:04.248Z,10.10
2023-05-13T15:34:34.674Z,5.63
2023-05-13T15:37:04.651Z,5.55
2023-05-13T15:39:33.983Z,6.80
2023-05-13T15:42:02.259Z,7.22
2023-05-13T15:44:31.921Z,9.98
2023-05-13T15:47:00.728Z,6.03
2023-05-13T15:49:28.848Z,4.78
2023-05-13T15:51:57.856Z,10.23
2023-05-13T15:54:25.766Z,8.75
2023-05-13T15:56:53.283Z,8.10
2023-05-13T15:59:20.837Z,12.07
2023-05-13T16:01:48.402Z,5.20
2023-05-13T16:04:16.121Z,7.15
2023-05-13T16:06:43.362Z,7.63
2023-05-13T16:09:10.767Z,6.60
2023-05-13T16:11:37.908Z,6.90
2023-05-13T16:14:07.735Z,6.75
2023-05-13T16:16:35.113Z,7.15
2023-05-13T16:19:03.821Z,7.60
2023-05-13T16:21:31.844Z,8.75
2023-05-13T16:23:59.084Z,8.70
2023-05-13T16:26:26.447Z,8.93
2023-05-13T16:28:53.596Z,10.95
2023-05-13T16:31:20.998Z,6.53
2023-05-13T16:33:48.171Z,7.15
2023-05-13T16:36:15.426Z,6.80
2023-05-13T16:38:42.585Z,7.40
2023-05-13T16:41:10.805Z,6.03
2023-05-13T16:43:38.003Z,5.72
2023-05-13T16:46:05.160Z,5.53
2023-05-13T16:48:32.349Z,10.52
2023-05-13T16:50:59.524Z,6.55
2023-05-13T16:53:26.703Z,8.98
2023-05-13T16:55:53.777Z,5.78
2023-05-13T16:58:21.249Z,5.28
2023-05-13T17:00:48.436Z,7.82
2023-05-13T17:03:15.762Z,7.13
2023-05-13T17:05:43.752Z,9.77
2023-05-13T17:08:11.334Z,8.50
2023-05-13T17:10:38.493Z,8.32
2023-05-13T17:13:05.624Z,11.02
2023-05-13T17:15:32.784Z,8.48
2023-05-13T17:17:59.941Z,7.80
2023-05-13T17:20:27.176Z,10.48
2023-05-13T17:22:54.219Z,8.50
2023-05-13T17:25:21.289Z,10.20
2023-05-13T17:27:50.772Z,11.75
2023-05-13T17:30:17.892Z,6.97
2023-05-13T17:32:45.105Z,7.43
2023-05-13T17:35:12.239Z,9.73
2023-05-13T17:37:39.263Z,10.50
2023-05-13T17:40:07.148Z,4.95
2023-05-13T17:42:34.258Z,6.22
2023-05-13T17:45:02.213Z,7.85
2023-05-13T17:47:29.656Z,7.68
2023-05-13T17:49:56.779Z,8.40
2023-05-13T17:52:23.982Z,11.50
2023-05-13T17:54:51.100Z,7.45
2023-05-13T17:57:18.192Z,8.80
2023-05-13T17:59:45.306Z,14.32
2023-05-13T18:02:12.569Z,9.65
2023-05-13T18:04:41.134Z,8.32
2023-05-13T18:07:08.353Z,12.02
2023-05-13T18:09:35.796Z,16.30
2023-05-13T18:12:03.544Z,11.00
2023-05-13T18:14:32.448Z,9.25
2023-05-13T18:17:00.257Z,9.45
2023-05-13T18:19:27.822Z,9.45
2023-05-13T18:21:54.879Z,13.40
2023-05-13T18:24:22.286Z,9.88
2023-05-13T18:26:49.432Z,13.40
2023-05-13T18:29:16.573Z,10.43
2023-05-13T18:31:43.672Z,9.93
2023-05-13T18:34:10.766Z,8.63
2023-05-13T18:36:37.838Z,10.82
2023-05-13T18:39:05.067Z,12.35
2023-05-13T18:41:32.101Z,14.65
2023-05-13T18:43:59.225Z,8.05
2023-05-13T18:46:26.464Z,10.30
2023-05-13T18:48:53.655Z,11.20
2023-05-13T18:51:21.160Z,8.95
2023-05-13T18:53:48.297Z,12.93
2023-05-13T18:56:16.214Z,8.95
2023-05-13T18:58:45.927Z,13.63
2023-05-13T19:01:15.882Z,14.02
2023-05-13T19:03:43.262Z,9.82
2023-05-13T19:06:10.402Z,9.00
2023-05-13T19:08:37.586Z,11.70
2023-05-13T19:11:04.728Z,8.75
2023-05-13T19:13:45.699Z,9.90
2023-05-13T19:16:13.720Z,12.75
2023-05-13T19:18:40.904Z,13.85
2023-05-13T19:21:08.080Z,9.48
2023-05-13T19:23:35.330Z,10.98
2023-05-13T19:26:02.490Z,15.32
2023-05-13T19:28:30.099Z,18.30
2023-05-13T19:30:57.344Z,10.32
2023-05-13T19:33:27.504Z,10.40
2023-05-13T19:35:54.758Z,10.27
2023-05-13T19:38:22.277Z,11.80
2023-05-13T19:40:52.868Z,12.45
2023-05-13T19:43:20.009Z,11.38
2023-05-13T19:45:47.082Z,8.75
2023-05-13T19:48:14.304Z,16.40
2023-05-13T19:50:42.212Z,14.30
2023-05-13T19:53:09.491Z,14.05
2023-05-13T19:55:36.707Z,16.42
2023-05-13T19:58:05.167Z,14.73
2023-05-13T20:00:32.303Z,11.82
2023-05-13T20:02:59.559Z,16.90
2023-05-13T20:05:26.704Z,11.95
2023-05-13T20:07:53.744Z,10.98
2023-05-13T20:10:21.246Z,13.10
2023-05-13T20:12:48.496Z,16.92
2023-05-13T20:15:17.825Z,12.45
2023-05-13T20:17:45.845Z,13.57
2023-05-13T20:20:13.093Z,14.57
2023-05-13T20:22:40.264Z,10.80
2023-05-13T20:25:07.735Z,13.82
2023-05-13T20:27:35.056Z,17.75
2023-05-13T20:30:04.534Z,12.75
2023-05-13T20:32:31.712Z,19.45
2023-05-13T20:34:58.876Z,13.25
2023-05-13T20:37:25.980Z,15.30
2023-05-13T20:39:53.124Z,20.25
2023-05-13T20:42:22.750Z,20.85
2023-05-13T20:44:50.859Z,21.33
2023-05-13T20:47:18.595Z,19.40
2023-05-13T20:49:45.803Z,21.65
2023-05-13T20:52:13.348Z,20.13
2023-05-13T20:54:40.640Z,16.00
2023-05-13T20:57:07.777Z,17.75
2023-05-13T20:59:35.167Z,15.40
2023-05-13T21:02:02.218Z,18.05
2023-05-13T21:04:29.383Z,16.63
2023-05-13T21:06:57.441Z,16.55
2023-05-13T21:09:24.574Z,17.15
2023-05-13T21:11:51.705Z,17.25
2023-05-13T21:14:18.788Z,20.13
2023-05-13T21:16:45.936Z,28.65
2023-05-13T21:19:24.560Z,39.00
2023-05-13T21:21:51.813Z,29.67
2023-05-13T21:24:19.339Z,26.70
2023-05-13T21:26:47.178Z,22.52
2023-05-13T21:29:14.903Z,29.00
2023-05-13T21:31:43.772Z,29.45
2023-05-13T21:34:10.996Z,25.10
2023-05-13T21:36:39.407Z,27.17
2023-05-13T21:39:07.362Z,27.92
2023-05-13T21:41:34.477Z,30.67
2023-05-13T21:44:01.715Z,40.47
2023-05-13T21:46:28.893Z,35.85
2023-05-13T21:48:56.088Z,23.65
2023-05-13T21:51:23.248Z,23.55
2023-05-13T21:53:50.509Z,18.77
2023-05-13T21:56:17.607Z,18.00
2023-05-13T21:58:44.830Z,20.05
2023-05-13T22:01:12.424Z,18.48
2023-05-13T22:03:40.975Z,15.32
2023-05-13T22:06:08.202Z,15.18
2023-05-13T22:08:35.430Z,16.83
2023-05-13T22:11:03.081Z,14.70
2023-05-13T22:13:30.498Z,14.68
2023-05-13T22:15:57.727Z,13.50
2023-05-13T22:18:25.902Z,14.25
2023-05-13T22:20:53.175Z,13.98
2023-05-13T22:23:20.502Z,12.02
2023-05-13T22:25:47.663Z,10.65
2023-05-13T22:28:14.841Z,13.73
2023-05-13T22:30:41.943Z,10.18
2023-05-13T22:33:09.162Z,23.30
2023-05-13T22:35:36.664Z,16.90
2023-05-13T22:38:04.650Z,14.13
2023-05-13T22:40:31.788Z,11.13
2023-05-13T22:42:58.917Z,11.10
2023-05-13T22:45:26.093Z,14.48
2023-05-13T22:47:53.320Z,14.35
2023-05-13T22:50:20.624Z,10.15
2023-05-13T22:52:47.958Z,11.10
2023-05-13T22:55:15.150Z,11.23
2023-05-13T22:57:42.266Z,10.43
2023-05-13T23:00:10.005Z,11.18
2023-05-13T23:02:37.293Z,14.20
2023-05-13T23:05:04.927Z,16.42
2023-05-13T23:07:32.111Z,17.00
2023-05-13T23:09:59.251Z,23.95
2023-05-13T23:12:26.676Z,25.45
2023-05-13T23:14:53.817Z,29.95
2023-05-13T23:17:21.570Z,19.50
2023-05-13T23:19:48.700Z,18.35
2023-05-13T23:22:15.886Z,20.00
2023-05-13T23:24:43.011Z,19.67
2023-05-13T23:27:11.857Z,13.20
2023-05-13T23:29:38.926Z,14.43
2023-05-13T23:32:07.048Z,13.13
2023-05-13T23:34:34.404Z,14.25
2023-05-13T23:37:01.538Z,10.85
2023-05-13T23:39:28.704Z,13.32
2023-05-13T23:41:55.820Z,13.73
2023-05-13T23:44:23.290Z,12.95
2023-05-13T23:46:50.655Z,12.48
2023-05-13T23:49:17.734Z,11.00
2023-05-13T23:51:44.831Z,10.43
2023-05-13T23:54:11.966Z,17.02
2023-05-13T23:56:39.092Z,10.07
2023-05-13T23:59:06.212Z,13.18
